sensor_id;sensor_type;location;lat;lon;timestamp;temperature;humidity
44886;DHT22;36669;51.428;21.162;2024-01-11T00:01:50;-4.70;97.60
44886;DHT22;36669;51.428;21.162;2024-01-11T00:04:19;-4.70;97.50
44886;DHT22;36669;51.428;21.162;2024-01-11T00:06:47;-4.70;97.40
44886;DHT22;36669;51.428;21.162;2024-01-11T00:09:13;-4.70;97.30
44886;DHT22;36669;51.428;21.162;2024-01-11T00:11:40;-4.60;97.10
44886;DHT22;36669;51.428;21.162;2024-01-11T00:14:07;-4.60;97.00
44886;DHT22;36669;51.428;21.162;2024-01-11T00:16:34;-4.60;96.90
44886;DHT22;36669;51.428;21.162;2024-01-11T00:19:02;-4.50;96.90
44886;DHT22;36669;51.428;21.162;2024-01-11T00:21:29;-4.50;96.80
44886;DHT22;36669;51.428;21.162;2024-01-11T00:23:56;-4.50;96.80
44886;DHT22;36669;51.428;21.162;2024-01-11T00:26:22;-4.40;96.80
44886;DHT22;36669;51.428;21.162;2024-01-11T00:28:49;-4.30;96.50
44886;DHT22;36669;51.428;21.162;2024-01-11T00:31:17;-4.40;96.50
44886;DHT22;36669;51.428;21.162;2024-01-11T00:33:44;-4.30;96.60
44886;DHT22;36669;51.428;21.162;2024-01-11T00:36:11;-4.30;96.60
44886;DHT22;36669;51.428;21.162;2024-01-11T00:38:43;-4.20;96.60
44886;DHT22;36669;51.428;21.162;2024-01-11T00:41:10;-4.30;96.80
44886;DHT22;36669;51.428;21.162;2024-01-11T00:43:37;-4.20;96.70
44886;DHT22;36669;51.428;21.162;2024-01-11T00:46:05;-4.20;96.80
44886;DHT22;36669;51.428;21.162;2024-01-11T00:48:33;-4.20;97.00
44886;DHT22;36669;51.428;21.162;2024-01-11T00:51:00;-4.30;97.30
44886;DHT22;36669;51.428;21.162;2024-01-11T00:53:27;-4.30;97.60
44886;DHT22;36669;51.428;21.162;2024-01-11T00:56:02;-4.20;97.80
44886;DHT22;36669;51.428;21.162;2024-01-11T00:58:29;-4.30;98.00
44886;DHT22;36669;51.428;21.162;2024-01-11T01:00:56;-4.30;98.20
44886;DHT22;36669;51.428;21.162;2024-01-11T01:03:22;-4.30;98.40
44886;DHT22;36669;51.428;21.162;2024-01-11T01:05:49;-4.30;98.70
44886;DHT22;36669;51.428;21.162;2024-01-11T01:08:17;-4.50;98.90
44886;DHT22;36669;51.428;21.162;2024-01-11T01:10:45;-4.50;99.20
44886;DHT22;36669;51.428;21.162;2024-01-11T01:13:13;-4.50;99.90
44886;DHT22;36669;51.428;21.162;2024-01-11T01:15:41;-4.60;99.90
44886;DHT22;36669;51.428;21.162;2024-01-11T01:18:09;-4.70;99.90
44886;DHT22;36669;51.428;21.162;2024-01-11T01:20:38;-4.80;99.90
44886;DHT22;36669;51.428;21.162;2024-01-11T01:23:05;-4.80;99.90
44886;DHT22;36669;51.428;21.162;2024-01-11T01:25:32;-4.90;99.90
44886;DHT22;36669;51.428;21.162;2024-01-11T01:27:59;-4.90;99.90
44886;DHT22;36669;51.428;21.162;2024-01-11T01:30:28;-5.00;99.90
44886;DHT22;36669;51.428;21.162;2024-01-11T01:32:55;-4.90;99.90
44886;DHT22;36669;51.428;21.162;2024-01-11T01:35:23;-4.90;99.90
44886;DHT22;36669;51.428;21.162;2024-01-11T01:37:51;-4.90;99.90
44886;DHT22;36669;51.428;21.162;2024-01-11T01:40:20;-4.90;99.90
44886;DHT22;36669;51.428;21.162;2024-01-11T01:42:47;-5.00;99.90
44886;DHT22;36669;51.428;21.162;2024-01-11T01:45:18;-5.00;99.90
44886;DHT22;36669;51.428;21.162;2024-01-11T01:47:45;-5.00;99.90
44886;DHT22;36669;51.428;21.162;2024-01-11T01:50:13;-5.00;99.90
44886;DHT22;36669;51.428;21.162;2024-01-11T01:52:42;-5.00;99.90
44886;DHT22;36669;51.428;21.162;2024-01-11T01:55:10;-4.90;99.90
44886;DHT22;36669;51.428;21.162;2024-01-11T01:57:39;-5.00;99.90
44886;DHT22;36669;51.428;21.162;2024-01-11T02:00:10;-5.00;99.90
44886;DHT22;36669;51.428;21.162;2024-01-11T02:02:50;-4.90;99.90
44886;DHT22;36669;51.428;21.162;2024-01-11T02:05:18;-4.90;99.90
44886;DHT22;36669;51.428;21.162;2024-01-11T02:07:45;-4.90;99.90
44886;DHT22;36669;51.428;21.162;2024-01-11T02:10:14;-5.00;99.90
44886;DHT22;36669;51.428;21.162;2024-01-11T02:12:41;-5.10;99.90
44886;DHT22;36669;51.428;21.162;2024-01-11T02:15:08;-5.00;99.90
44886;DHT22;36669;51.428;21.162;2024-01-11T02:17:37;-5.10;99.90
44886;DHT22;36669;51.428;21.162;2024-01-11T02:20:09;-5.10;99.90
44886;DHT22;36669;51.428;21.162;2024-01-11T02:22:40;-4.90;99.90
44886;DHT22;36669;51.428;21.162;2024-01-11T02:25:07;-5.00;99.90
44886;DHT22;36669;51.428;21.162;2024-01-11T02:30:12;-5.00;99.90
44886;DHT22;36669;51.428;21.162;2024-01-11T02:32:38;-5.00;99.90
44886;DHT22;36669;51.428;21.162;2024-01-11T02:35:06;-4.80;99.90
44886;DHT22;36669;51.428;21.162;2024-01-11T02:37:36;-4.50;99.90
44886;DHT22;36669;51.428;21.162;2024-01-11T02:40:07;-4.30;99.90
44886;DHT22;36669;51.428;21.162;2024-01-11T02:42:34;-4.20;99.90
44886;DHT22;36669;51.428;21.162;2024-01-11T02:45:07;-4.10;99.90
44886;DHT22;36669;51.428;21.162;2024-01-11T02:47:34;-4.00;99.90
44886;DHT22;36669;51.428;21.162;2024-01-11T02:50:02;-3.90;99.90
44886;DHT22;36669;51.428;21.162;2024-01-11T02:52:29;-3.90;99.90
44886;DHT22;36669;51.428;21.162;2024-01-11T02:54:55;-3.90;99.90
44886;DHT22;36669;51.428;21.162;2024-01-11T02:57:23;-3.90;99.90
44886;DHT22;36669;51.428;21.162;2024-01-11T02:59:51;-3.90;99.90
44886;DHT22;36669;51.428;21.162;2024-01-11T03:02:18;-3.90;99.90
44886;DHT22;36669;51.428;21.162;2024-01-11T03:04:45;-3.90;99.90
44886;DHT22;36669;51.428;21.162;2024-01-11T03:07:12;-4.00;99.90
44886;DHT22;36669;51.428;21.162;2024-01-11T03:09:37;-4.00;99.90
44886;DHT22;36669;51.428;21.162;2024-01-11T03:12:04;-3.90;99.90
44886;DHT22;36669;51.428;21.162;2024-01-11T03:14:33;-4.00;99.90
44886;DHT22;36669;51.428;21.162;2024-01-11T03:17:00;-4.00;99.90
44886;DHT22;36669;51.428;21.162;2024-01-11T03:19:27;-3.90;99.90
44886;DHT22;36669;51.428;21.162;2024-01-11T03:21:55;-3.90;99.90
44886;DHT22;36669;51.428;21.162;2024-01-11T03:24:22;-4.00;99.90
44886;DHT22;36669;51.428;21.162;2024-01-11T03:26:49;-4.00;99.90
44886;DHT22;36669;51.428;21.162;2024-01-11T03:29:15;-3.90;99.90
44886;DHT22;36669;51.428;21.162;2024-01-11T03:31:42;-3.90;99.90
44886;DHT22;36669;51.428;21.162;2024-01-11T03:34:12;-3.80;99.90
44886;DHT22;36669;51.428;21.162;2024-01-11T03:36:41;-3.80;99.90
44886;DHT22;36669;51.428;21.162;2024-01-11T03:39:08;-3.70;99.90
44886;DHT22;36669;51.428;21.162;2024-01-11T03:41:34;-3.70;99.90
44886;DHT22;36669;51.428;21.162;2024-01-11T03:44:01;-3.60;99.90
44886;DHT22;36669;51.428;21.162;2024-01-11T03:46:28;-3.60;99.90
44886;DHT22;36669;51.428;21.162;2024-01-11T03:48:56;-3.60;99.90
44886;DHT22;36669;51.428;21.162;2024-01-11T03:51:23;-3.40;99.90
44886;DHT22;36669;51.428;21.162;2024-01-11T03:53:49;-3.50;99.90
44886;DHT22;36669;51.428;21.162;2024-01-11T03:56:16;-3.50;99.90
44886;DHT22;36669;51.428;21.162;2024-01-11T03:58:43;-3.60;99.90
44886;DHT22;36669;51.428;21.162;2024-01-11T04:01:12;-3.60;99.90
44886;DHT22;36669;51.428;21.162;2024-01-11T04:03:41;-3.70;99.90
44886;DHT22;36669;51.428;21.162;2024-01-11T04:06:08;-3.70;99.90
44886;DHT22;36669;51.428;21.162;2024-01-11T04:08:36;-3.70;99.90
44886;DHT22;36669;51.428;21.162;2024-01-11T04:11:03;-3.80;99.90
44886;DHT22;36669;51.428;21.162;2024-01-11T04:13:36;-3.90;99.90
44886;DHT22;36669;51.428;21.162;2024-01-11T04:16:07;-3.90;99.90
44886;DHT22;36669;51.428;21.162;2024-01-11T04:18:35;-4.00;99.90
44886;DHT22;36669;51.428;21.162;2024-01-11T04:21:01;-4.00;99.90
44886;DHT22;36669;51.428;21.162;2024-01-11T04:23:28;-4.10;99.90
44886;DHT22;36669;51.428;21.162;2024-01-11T04:25:54;-4.10;99.90
44886;DHT22;36669;51.428;21.162;2024-01-11T04:28:23;-4.10;99.90
44886;DHT22;36669;51.428;21.162;2024-01-11T04:30:51;-4.20;99.90
44886;DHT22;36669;51.428;21.162;2024-01-11T04:33:19;-4.30;99.90
44886;DHT22;36669;51.428;21.162;2024-01-11T04:35:47;-4.30;99.90
44886;DHT22;36669;51.428;21.162;2024-01-11T04:38:14;-4.30;99.90
44886;DHT22;36669;51.428;21.162;2024-01-11T04:40:41;-4.40;99.90
44886;DHT22;36669;51.428;21.162;2024-01-11T04:43:09;-4.40;99.90
44886;DHT22;36669;51.428;21.162;2024-01-11T04:45:37;-4.40;99.90
44886;DHT22;36669;51.428;21.162;2024-01-11T04:48:03;-4.40;99.90
44886;DHT22;36669;51.428;21.162;2024-01-11T04:50:30;-4.40;99.90
44886;DHT22;36669;51.428;21.162;2024-01-11T04:52:58;-4.40;99.90
44886;DHT22;36669;51.428;21.162;2024-01-11T04:55:26;-4.50;99.90
44886;DHT22;36669;51.428;21.162;2024-01-11T04:57:52;-4.50;99.90
44886;DHT22;36669;51.428;21.162;2024-01-11T05:00:19;-4.50;99.90
44886;DHT22;36669;51.428;21.162;2024-01-11T05:02:47;-4.50;99.90
44886;DHT22;36669;51.428;21.162;2024-01-11T05:05:14;-4.60;99.90
44886;DHT22;36669;51.428;21.162;2024-01-11T05:07:40;-4.60;99.90
44886;DHT22;36669;51.428;21.162;2024-01-11T05:10:09;-4.60;99.90
44886;DHT22;36669;51.428;21.162;2024-01-11T05:12:35;-4.70;99.90
44886;DHT22;36669;51.428;21.162;2024-01-11T05:15:07;-4.70;99.90
44886;DHT22;36669;51.428;21.162;2024-01-11T05:17:35;-4.70;99.90
44886;DHT22;36669;51.428;21.162;2024-01-11T05:20:02;-4.70;99.90
44886;DHT22;36669;51.428;21.162;2024-01-11T05:22:30;-4.70;99.90
44886;DHT22;36669;51.428;21.162;2024-01-11T05:24:57;-4.80;99.90
44886;DHT22;36669;51.428;21.162;2024-01-11T05:27:23;-4.80;99.90
44886;DHT22;36669;51.428;21.162;2024-01-11T05:29:51;-4.90;99.90
44886;DHT22;36669;51.428;21.162;2024-01-11T05:32:18;-4.90;99.90
44886;DHT22;36669;51.428;21.162;2024-01-11T05:34:45;-5.00;99.90
44886;DHT22;36669;51.428;21.162;2024-01-11T05:37:13;-5.00;99.90
44886;DHT22;36669;51.428;21.162;2024-01-11T05:39:40;-5.00;99.90
44886;DHT22;36669;51.428;21.162;2024-01-11T05:42:07;-5.10;99.90
44886;DHT22;36669;51.428;21.162;2024-01-11T05:44:35;-5.10;99.90
44886;DHT22;36669;51.428;21.162;2024-01-11T05:47:02;-5.20;99.90
44886;DHT22;36669;51.428;21.162;2024-01-11T05:49:30;-5.20;99.90
44886;DHT22;36669;51.428;21.162;2024-01-11T05:51:57;-5.20;99.90
44886;DHT22;36669;51.428;21.162;2024-01-11T05:54:25;-5.20;99.90
44886;DHT22;36669;51.428;21.162;2024-01-11T05:56:54;-5.30;99.90
44886;DHT22;36669;51.428;21.162;2024-01-11T05:59:27;-5.30;99.90
44886;DHT22;36669;51.428;21.162;2024-01-11T06:01:54;-5.30;99.90
44886;DHT22;36669;51.428;21.162;2024-01-11T06:04:21;-5.30;99.90
44886;DHT22;36669;51.428;21.162;2024-01-11T06:06:47;-5.30;99.90
44886;DHT22;36669;51.428;21.162;2024-01-11T06:09:15;-5.30;99.90
44886;DHT22;36669;51.428;21.162;2024-01-11T06:11:45;-5.30;99.90
44886;DHT22;36669;51.428;21.162;2024-01-11T06:14:12;-5.30;99.90
44886;DHT22;36669;51.428;21.162;2024-01-11T06:16:41;-5.30;99.90
44886;DHT22;36669;51.428;21.162;2024-01-11T06:19:08;-5.30;99.90
44886;DHT22;36669;51.428;21.162;2024-01-11T06:21:35;-5.30;99.90
44886;DHT22;36669;51.428;21.162;2024-01-11T06:24:04;-5.30;99.90
44886;DHT22;36669;51.428;21.162;2024-01-11T06:26:31;-5.30;99.90
44886;DHT22;36669;51.428;21.162;2024-01-11T06:28:58;-5.20;99.90
44886;DHT22;36669;51.428;21.162;2024-01-11T06:31:25;-5.20;99.90
44886;DHT22;36669;51.428;21.162;2024-01-11T06:33:53;-5.10;99.90
44886;DHT22;36669;51.428;21.162;2024-01-11T06:36:21;-5.10;99.90
44886;DHT22;36669;51.428;21.162;2024-01-11T06:38:51;-5.10;99.90
44886;DHT22;36669;51.428;21.162;2024-01-11T06:41:17;-5.10;99.90
44886;DHT22;36669;51.428;21.162;2024-01-11T06:43:44;-5.00;99.90
44886;DHT22;36669;51.428;21.162;2024-01-11T06:46:11;-4.90;99.90
44886;DHT22;36669;51.428;21.162;2024-01-11T06:48:39;-4.90;99.90
44886;DHT22;36669;51.428;21.162;2024-01-11T06:51:06;-4.90;99.90
44886;DHT22;36669;51.428;21.162;2024-01-11T06:53:36;-4.90;99.90
44886;DHT22;36669;51.428;21.162;2024-01-11T06:56:18;-4.90;99.90
44886;DHT22;36669;51.428;21.162;2024-01-11T06:58:45;-4.90;99.90
44886;DHT22;36669;51.428;21.162;2024-01-11T07:01:12;-4.80;99.90
44886;DHT22;36669;51.428;21.162;2024-01-11T07:03:38;-4.80;99.90
44886;DHT22;36669;51.428;21.162;2024-01-11T07:06:06;-4.80;99.90
44886;DHT22;36669;51.428;21.162;2024-01-11T07:08:34;-4.80;99.90
44886;DHT22;36669;51.428;21.162;2024-01-11T07:11:01;-4.80;99.90
44886;DHT22;36669;51.428;21.162;2024-01-11T07:13:30;-4.80;99.90
44886;DHT22;36669;51.428;21.162;2024-01-11T07:15:59;-4.70;99.90
44886;DHT22;36669;51.428;21.162;2024-01-11T07:18:26;-4.80;99.90
44886;DHT22;36669;51.428;21.162;2024-01-11T07:20:53;-4.80;99.90
44886;DHT22;36669;51.428;21.162;2024-01-11T07:23:19;-4.80;99.90
44886;DHT22;36669;51.428;21.162;2024-01-11T07:25:47;-4.80;99.90
44886;DHT22;36669;51.428;21.162;2024-01-11T07:28:14;-4.80;99.90
44886;DHT22;36669;51.428;21.162;2024-01-11T07:30:42;-4.80;99.90
44886;DHT22;36669;51.428;21.162;2024-01-11T07:33:08;-4.70;99.90
44886;DHT22;36669;51.428;21.162;2024-01-11T07:35:37;-4.70;99.90
44886;DHT22;36669;51.428;21.162;2024-01-11T07:38:04;-4.70;99.90
44886;DHT22;36669;51.428;21.162;2024-01-11T07:40:33;-4.70;99.90
44886;DHT22;36669;51.428;21.162;2024-01-11T07:43:01;-4.70;99.90
44886;DHT22;36669;51.428;21.162;2024-01-11T07:45:29;-4.70;99.90
44886;DHT22;36669;51.428;21.162;2024-01-11T07:47:55;-4.70;99.90
44886;DHT22;36669;51.428;21.162;2024-01-11T07:50:23;-4.60;99.90
44886;DHT22;36669;51.428;21.162;2024-01-11T07:52:51;-4.70;99.90
44886;DHT22;36669;51.428;21.162;2024-01-11T07:55:19;-4.70;99.90
44886;DHT22;36669;51.428;21.162;2024-01-11T07:57:51;-4.60;99.90
44886;DHT22;36669;51.428;21.162;2024-01-11T08:00:18;-4.60;99.90
44886;DHT22;36669;51.428;21.162;2024-01-11T08:02:45;-4.60;99.90
44886;DHT22;36669;51.428;21.162;2024-01-11T08:05:12;-4.60;99.90
44886;DHT22;36669;51.428;21.162;2024-01-11T08:07:39;-4.60;99.90
44886;DHT22;36669;51.428;21.162;2024-01-11T08:10:06;-4.50;99.90
44886;DHT22;36669;51.428;21.162;2024-01-11T08:12:33;-4.50;99.90
44886;DHT22;36669;51.428;21.162;2024-01-11T08:15:01;-4.50;99.90
44886;DHT22;36669;51.428;21.162;2024-01-11T08:17:28;-4.50;99.90
44886;DHT22;36669;51.428;21.162;2024-01-11T08:19:56;-4.50;99.90
44886;DHT22;36669;51.428;21.162;2024-01-11T08:22:23;-4.50;99.90
44886;DHT22;36669;51.428;21.162;2024-01-11T08:24:50;-4.40;99.90
44886;DHT22;36669;51.428;21.162;2024-01-11T08:27:18;-4.40;99.90
44886;DHT22;36669;51.428;21.162;2024-01-11T08:29:55;-4.50;99.90
44886;DHT22;36669;51.428;21.162;2024-01-11T08:32:21;-4.40;99.90
44886;DHT22;36669;51.428;21.162;2024-01-11T08:34:48;-4.30;99.90
44886;DHT22;36669;51.428;21.162;2024-01-11T08:37:15;-4.30;99.90
44886;DHT22;36669;51.428;21.162;2024-01-11T08:39:42;-4.30;99.90
44886;DHT22;36669;51.428;21.162;2024-01-11T08:42:08;-4.30;99.90
44886;DHT22;36669;51.428;21.162;2024-01-11T08:44:35;-4.30;99.90
44886;DHT22;36669;51.428;21.162;2024-01-11T08:47:03;-4.20;99.90
44886;DHT22;36669;51.428;21.162;2024-01-11T08:49:30;-4.20;99.90
44886;DHT22;36669;51.428;21.162;2024-01-11T08:51:57;-4.20;99.90
44886;DHT22;36669;51.428;21.162;2024-01-11T08:54:24;-4.20;99.90
44886;DHT22;36669;51.428;21.162;2024-01-11T08:56:51;-4.10;99.90
44886;DHT22;36669;51.428;21.162;2024-01-11T08:59:18;-4.10;99.90
44886;DHT22;36669;51.428;21.162;2024-01-11T09:01:44;-4.10;99.90
44886;DHT22;36669;51.428;21.162;2024-01-11T09:04:11;-4.10;99.90
44886;DHT22;36669;51.428;21.162;2024-01-11T09:06:38;-4.10;99.90
44886;DHT22;36669;51.428;21.162;2024-01-11T09:09:06;-4.10;99.90
44886;DHT22;36669;51.428;21.162;2024-01-11T09:11:36;-4.10;99.90
44886;DHT22;36669;51.428;21.162;2024-01-11T09:14:05;-4.10;99.90
44886;DHT22;36669;51.428;21.162;2024-01-11T09:16:33;-4.10;99.90
44886;DHT22;36669;51.428;21.162;2024-01-11T09:19:00;-4.10;99.90
44886;DHT22;36669;51.428;21.162;2024-01-11T09:21:27;-4.10;99.90
44886;DHT22;36669;51.428;21.162;2024-01-11T09:23:55;-4.00;99.90
44886;DHT22;36669;51.428;21.162;2024-01-11T09:26:22;-4.00;99.90
44886;DHT22;36669;51.428;21.162;2024-01-11T09:28:48;-4.00;99.90
44886;DHT22;36669;51.428;21.162;2024-01-11T09:31:14;-4.00;99.90
44886;DHT22;36669;51.428;21.162;2024-01-11T09:33:42;-4.00;99.90
44886;DHT22;36669;51.428;21.162;2024-01-11T09:36:12;-4.00;99.90
44886;DHT22;36669;51.428;21.162;2024-01-11T09:38:42;-4.00;99.90
44886;DHT22;36669;51.428;21.162;2024-01-11T09:41:13;-4.00;99.90
44886;DHT22;36669;51.428;21.162;2024-01-11T09:43:42;-3.90;99.90
44886;DHT22;36669;51.428;21.162;2024-01-11T09:46:10;-3.90;99.90
44886;DHT22;36669;51.428;21.162;2024-01-11T09:48:44;-3.90;99.90
44886;DHT22;36669;51.428;21.162;2024-01-11T09:51:22;-3.90;99.90
44886;DHT22;36669;51.428;21.162;2024-01-11T09:53:51;-3.80;99.90
44886;DHT22;36669;51.428;21.162;2024-01-11T09:56:19;-3.70;99.90
44886;DHT22;36669;51.428;21.162;2024-01-11T09:58:47;-3.70;99.90
44886;DHT22;36669;51.428;21.162;2024-01-11T10:01:15;-3.60;99.90
44886;DHT22;36669;51.428;21.162;2024-01-11T10:03:49;-3.70;99.90
44886;DHT22;36669;51.428;21.162;2024-01-11T10:06:14;-3.60;99.90
44886;DHT22;36669;51.428;21.162;2024-01-11T10:08:43;-3.60;99.90
44886;DHT22;36669;51.428;21.162;2024-01-11T10:11:11;-3.60;99.90
44886;DHT22;36669;51.428;21.162;2024-01-11T10:13:37;-3.60;99.90
44886;DHT22;36669;51.428;21.162;2024-01-11T10:16:12;-3.60;99.90
44886;DHT22;36669;51.428;21.162;2024-01-11T10:18:41;-3.60;99.90
44886;DHT22;36669;51.428;21.162;2024-01-11T10:21:08;-3.50;99.90
44886;DHT22;36669;51.428;21.162;2024-01-11T10:23:37;-3.50;99.90
44886;DHT22;36669;51.428;21.162;2024-01-11T10:26:07;-3.50;99.90
44886;DHT22;36669;51.428;21.162;2024-01-11T10:28:35;-3.50;99.90
44886;DHT22;36669;51.428;21.162;2024-01-11T10:31:07;-3.60;99.90
44886;DHT22;36669;51.428;21.162;2024-01-11T10:33:35;-3.50;99.90
44886;DHT22;36669;51.428;21.162;2024-01-11T10:36:01;-3.50;99.90
44886;DHT22;36669;51.428;21.162;2024-01-11T10:38:31;-3.50;99.90
44886;DHT22;36669;51.428;21.162;2024-01-11T10:41:06;-3.50;99.90
44886;DHT22;36669;51.428;21.162;2024-01-11T10:43:40;-3.50;99.90
44886;DHT22;36669;51.428;21.162;2024-01-11T10:46:20;-3.50;99.90
44886;DHT22;36669;51.428;21.162;2024-01-11T10:48:53;-3.50;99.90
44886;DHT22;36669;51.428;21.162;2024-01-11T10:51:23;-3.60;99.90
44886;DHT22;36669;51.428;21.162;2024-01-11T10:53:54;-3.60;99.90
44886;DHT22;36669;51.428;21.162;2024-01-11T10:56:20;-3.60;99.90
44886;DHT22;36669;51.428;21.162;2024-01-11T10:58:48;-3.60;99.90
44886;DHT22;36669;51.428;21.162;2024-01-11T11:01:16;-3.60;99.90
44886;DHT22;36669;51.428;21.162;2024-01-11T11:03:44;-3.70;99.90
44886;DHT22;36669;51.428;21.162;2024-01-11T11:06:16;-3.70;99.90
44886;DHT22;36669;51.428;21.162;2024-01-11T11:08:46;-3.70;99.90
44886;DHT22;36669;51.428;21.162;2024-01-11T11:11:17;-3.70;99.90
44886;DHT22;36669;51.428;21.162;2024-01-11T11:13:47;-3.70;99.90
44886;DHT22;36669;51.428;21.162;2024-01-11T11:16:16;-3.80;99.90
44886;DHT22;36669;51.428;21.162;2024-01-11T11:18:44;-3.80;99.90
44886;DHT22;36669;51.428;21.162;2024-01-11T11:21:12;-3.80;99.90
44886;DHT22;36669;51.428;21.162;2024-01-11T11:23:39;-3.70;99.90
44886;DHT22;36669;51.428;21.162;2024-01-11T11:26:07;-3.70;99.90
44886;DHT22;36669;51.428;21.162;2024-01-11T11:28:41;-3.70;99.90
44886;DHT22;36669;51.428;21.162;2024-01-11T11:31:07;-3.70;99.90
44886;DHT22;36669;51.428;21.162;2024-01-11T11:33:37;-3.60;99.90
44886;DHT22;36669;51.428;21.162;2024-01-11T11:36:03;-3.60;99.90
44886;DHT22;36669;51.428;21.162;2024-01-11T11:38:34;-3.60;99.90
44886;DHT22;36669;51.428;21.162;2024-01-11T11:41:03;-3.40;99.90
44886;DHT22;36669;51.428;21.162;2024-01-11T11:43:32;-3.50;99.90
44886;DHT22;36669;51.428;21.162;2024-01-11T11:45:58;-3.40;99.90
44886;DHT22;36669;51.428;21.162;2024-01-11T11:48:49;-3.40;99.90
44886;DHT22;36669;51.428;21.162;2024-01-11T11:51:20;-3.30;99.90
44886;DHT22;36669;51.428;21.162;2024-01-11T11:53:51;-3.30;99.90
44886;DHT22;36669;51.428;21.162;2024-01-11T11:56:23;-3.30;99.90
44886;DHT22;36669;51.428;21.162;2024-01-11T11:58:52;-3.30;99.90
44886;DHT22;36669;51.428;21.162;2024-01-11T12:01:20;-3.40;99.90
44886;DHT22;36669;51.428;21.162;2024-01-11T12:03:48;-3.30;99.90
44886;DHT22;36669;51.428;21.162;2024-01-11T12:06:16;-3.40;99.90
44886;DHT22;36669;51.428;21.162;2024-01-11T12:08:43;-3.40;99.90
44886;DHT22;36669;51.428;21.162;2024-01-11T12:11:09;-3.30;99.90
44886;DHT22;36669;51.428;21.162;2024-01-11T12:13:36;-3.30;99.90
44886;DHT22;36669;51.428;21.162;2024-01-11T12:16:04;-3.30;99.90
44886;DHT22;36669;51.428;21.162;2024-01-11T12:18:30;-3.40;99.90
44886;DHT22;36669;51.428;21.162;2024-01-11T12:20:57;-3.30;99.90
44886;DHT22;36669;51.428;21.162;2024-01-11T12:23:26;-3.30;99.90
44886;DHT22;36669;51.428;21.162;2024-01-11T12:26:01;-3.20;99.90
44886;DHT22;36669;51.428;21.162;2024-01-11T12:28:27;-3.20;99.90
44886;DHT22;36669;51.428;21.162;2024-01-11T12:30:54;-3.30;99.90
44886;DHT22;36669;51.428;21.162;2024-01-11T12:33:21;-3.30;99.90
44886;DHT22;36669;51.428;21.162;2024-01-11T12:35:50;-3.30;99.90
44886;DHT22;36669;51.428;21.162;2024-01-11T12:38:17;-3.20;99.90
44886;DHT22;36669;51.428;21.162;2024-01-11T12:40:43;-3.30;99.90
44886;DHT22;36669;51.428;21.162;2024-01-11T12:43:10;-3.20;99.90
44886;DHT22;36669;51.428;21.162;2024-01-11T12:45:39;-3.30;99.90
44886;DHT22;36669;51.428;21.162;2024-01-11T12:48:07;-3.20;99.90
44886;DHT22;36669;51.428;21.162;2024-01-11T12:50:36;-3.20;99.90
44886;DHT22;36669;51.428;21.162;2024-01-11T12:53:14;-3.20;99.90
44886;DHT22;36669;51.428;21.162;2024-01-11T12:56:01;-3.20;99.90
44886;DHT22;36669;51.428;21.162;2024-01-11T12:58:29;-3.20;99.90
44886;DHT22;36669;51.428;21.162;2024-01-11T13:00:55;-3.10;99.90
44886;DHT22;36669;51.428;21.162;2024-01-11T13:03:22;-3.10;99.90
44886;DHT22;36669;51.428;21.162;2024-01-11T13:05:51;-3.10;99.90
44886;DHT22;36669;51.428;21.162;2024-01-11T13:08:19;-3.10;99.90
44886;DHT22;36669;51.428;21.162;2024-01-11T13:10:46;-3.00;99.90
44886;DHT22;36669;51.428;21.162;2024-01-11T13:13:14;-3.00;99.90
44886;DHT22;36669;51.428;21.162;2024-01-11T13:15:40;-3.00;99.90
44886;DHT22;36669;51.428;21.162;2024-01-11T13:18:08;-3.00;99.90
44886;DHT22;36669;51.428;21.162;2024-01-11T13:20:36;-3.00;99.90
44886;DHT22;36669;51.428;21.162;2024-01-11T13:23:20;-3.00;99.90
44886;DHT22;36669;51.428;21.162;2024-01-11T13:25:51;-3.00;99.90
44886;DHT22;36669;51.428;21.162;2024-01-11T13:28:19;-2.90;99.90
44886;DHT22;36669;51.428;21.162;2024-01-11T13:30:46;-3.00;99.90
44886;DHT22;36669;51.428;21.162;2024-01-11T13:33:15;-3.00;99.90
44886;DHT22;36669;51.428;21.162;2024-01-11T13:35:44;-3.00;99.90
44886;DHT22;36669;51.428;21.162;2024-01-11T13:38:11;-2.90;99.90
44886;DHT22;36669;51.428;21.162;2024-01-11T13:40:38;-2.90;99.90
44886;DHT22;36669;51.428;21.162;2024-01-11T13:43:08;-2.90;99.90
44886;DHT22;36669;51.428;21.162;2024-01-11T13:45:36;-2.90;99.90
44886;DHT22;36669;51.428;21.162;2024-01-11T13:48:04;-2.90;99.90
44886;DHT22;36669;51.428;21.162;2024-01-11T13:50:34;-2.90;99.90
44886;DHT22;36669;51.428;21.162;2024-01-11T13:53:01;-2.90;99.90
44886;DHT22;36669;51.428;21.162;2024-01-11T13:55:28;-2.90;99.90
44886;DHT22;36669;51.428;21.162;2024-01-11T13:57:57;-2.90;99.90
44886;DHT22;36669;51.428;21.162;2024-01-11T14:00:24;-2.80;99.90
44886;DHT22;36669;51.428;21.162;2024-01-11T14:02:52;-2.80;99.90
44886;DHT22;36669;51.428;21.162;2024-01-11T14:05:21;-2.80;99.90
44886;DHT22;36669;51.428;21.162;2024-01-11T14:07:47;-2.70;99.90
44886;DHT22;36669;51.428;21.162;2024-01-11T14:10:16;-2.80;99.90
44886;DHT22;36669;51.428;21.162;2024-01-11T14:12:45;-2.70;99.90
44886;DHT22;36669;51.428;21.162;2024-01-11T14:15:12;-2.70;99.90
44886;DHT22;36669;51.428;21.162;2024-01-11T14:17:39;-2.70;99.90
44886;DHT22;36669;51.428;21.162;2024-01-11T14:20:08;-2.70;99.90
44886;DHT22;36669;51.428;21.162;2024-01-11T14:22:45;-2.60;99.90
44886;DHT22;36669;51.428;21.162;2024-01-11T14:25:23;-2.60;99.90
44886;DHT22;36669;51.428;21.162;2024-01-11T14:27:52;-2.60;99.90
44886;DHT22;36669;51.428;21.162;2024-01-11T14:30:21;-2.60;99.90
44886;DHT22;36669;51.428;21.162;2024-01-11T14:32:50;-2.60;99.90
44886;DHT22;36669;51.428;21.162;2024-01-11T14:35:17;-2.60;99.90
44886;DHT22;36669;51.428;21.162;2024-01-11T14:37:46;-2.50;99.90
44886;DHT22;36669;51.428;21.162;2024-01-11T14:40:13;-2.50;99.90
44886;DHT22;36669;51.428;21.162;2024-01-11T14:42:41;-2.50;99.90
44886;DHT22;36669;51.428;21.162;2024-01-11T14:45:07;-2.50;99.90
44886;DHT22;36669;51.428;21.162;2024-01-11T14:47:34;-2.50;99.90
44886;DHT22;36669;51.428;21.162;2024-01-11T14:50:02;-2.50;99.90
44886;DHT22;36669;51.428;21.162;2024-01-11T14:52:38;-2.50;99.90
44886;DHT22;36669;51.428;21.162;2024-01-11T14:55:08;-2.50;99.90
44886;DHT22;36669;51.428;21.162;2024-01-11T14:57:40;-2.50;99.90
44886;DHT22;36669;51.428;21.162;2024-01-11T15:00:07;-2.40;99.90
44886;DHT22;36669;51.428;21.162;2024-01-11T15:02:37;-2.40;99.90
44886;DHT22;36669;51.428;21.162;2024-01-11T15:05:04;-2.40;99.90
44886;DHT22;36669;51.428;21.162;2024-01-11T15:07:31;-2.40;99.90
44886;DHT22;36669;51.428;21.162;2024-01-11T15:09:59;-2.40;99.90
44886;DHT22;36669;51.428;21.162;2024-01-11T15:12:28;-2.40;99.90
44886;DHT22;36669;51.428;21.162;2024-01-11T15:14:54;-2.40;99.90
44886;DHT22;36669;51.428;21.162;2024-01-11T15:17:20;-2.40;99.90
44886;DHT22;36669;51.428;21.162;2024-01-11T15:19:50;-2.40;99.90
44886;DHT22;36669;51.428;21.162;2024-01-11T15:22:16;-2.40;99.90
44886;DHT22;36669;51.428;21.162;2024-01-11T15:24:43;-2.40;99.90